Anna Desgagnes — VCWS — position and weather

sailwx.info

Track history (hours):
 
Tides and Currents Weather Stations Pressure Air Temp Water Temp Dewpoint Dewpoint Depression Visibility Wind Speed Wind Dir Waves Ship Positions

Anna Desgagnes

Last reported at 2015-Nov-07 17:31 UTC. Time now 2016-Feb-08 06:13 UTC.
Position N 45°27' W 073°30'.
Warning: this ship's position is months out of date.

Length 173 m; draft 7.2 m.

Type: Ship. MMSI: 316297000.

Date/timePositionNaut miles runAvg speedWind from/ knotsBaromVisibWave heightAir tempDewpointWater temp
2015-Nov-07 17:31N 45°27' W 073°30'4 3.5
2015-Nov-07 16:31N 45°24' W 073°34'1 0.1
2015-Nov-07 02:06N 45°24' W 073°36'0 0.0
2015-Nov-06 21:24N 45°24' W 073°36'0 0.0
2015-Nov-06 20:24N 45°24' W 073°36'0 0.0
2015-Nov-06 19:24N 45°24' W 073°36'0 0.0
2015-Nov-06 18:18N 45°24' W 073°36'0 0.0
2015-Nov-06 14:33N 45°24' W 073°36'0 0.0
2015-Nov-06 13:33N 45°24' W 073°36'0 0.0
2015-Nov-06 12:27N 45°24' W 073°36'0 0.0
2015-Nov-06 11:33N 45°24' W 073°36'0 0.0
2015-Nov-06 10:33N 45°24' W 073°36'0 0.0
2015-Nov-06 09:33N 45°24' W 073°36'0 0.0
2015-Nov-06 08:33N 45°24' W 073°36'0 0.0
2015-Nov-06 07:33N 45°24' W 073°36'0 0.0
2015-Nov-06 06:33N 45°24' W 073°36'0 0.0
2015-Nov-06 05:21N 45°24' W 073°36'0 0.0
2015-Nov-06 04:33N 45°24' W 073°36'0 0.0
2015-Nov-06 03:33N 45°24' W 073°36'0 0.0
2015-Nov-06 02:33N 45°24' W 073°36'0 0.0
2015-Nov-06 01:27N 45°24' W 073°36'0 0.0
2015-Nov-06 00:33N 45°24' W 073°36'0 0.0
2015-Nov-05 23:33N 45°24' W 073°36'0 0.0
2015-Nov-05 22:33N 45°24' W 073°36'0 0.0
2015-Nov-05 20:27N 45°24' W 073°36'0 0.0
2015-Nov-05 19:33N 45°24' W 073°36'0 0.0
2015-Nov-05 18:33N 45°24' W 073°36'0 0.0
2015-Nov-05 17:33N 45°24' W 073°36'0 0.0
2015-Nov-05 16:33N 45°24' W 073°36'0 0.0
2015-Nov-05 15:33N 45°24' W 073°36'0 0.0
2015-Nov-05 14:09N 45°24' W 073°36'0 0.0
2015-Nov-05 13:33N 45°24' W 073°36'0 0.5
2015-Nov-05 12:33N 45°24' W 073°36'5 4.7
2015-Nov-05 11:33N 45°25' W 073°43'4 3.6
2015-Nov-05 10:33N 45°23' W 073°48'7 7.3
2015-Nov-05 09:33N 45°24' W 073°38'3 3.0
2015-Nov-05 08:33N 45°24' W 073°33'5 4.9
2015-Nov-05 07:32N 45°29' W 073°31'56 8.0
2015-Nov-05 00:33N 46°15' W 072°45'9 9.5
2015-Nov-04 23:33N 46°19' W 072°33'1111.1
2015-Nov-04 22:33N 46°26' W 072°20'1111.4
2015-Nov-04 21:33N 46°34' W 072°08'1311.7
2015-Nov-04 20:27N 46°41' W 071°52'  
Track history (hours):
 
Tides and Currents Weather Stations Pressure Air Temp Water Temp Dewpoint Dewpoint Depression Visibility Wind Speed Wind Dir Waves Ship Positions

Anna Desgagnes

Last reported at 2015-Nov-07 17:31 UTC. Time now 2016-Feb-08 06:13 UTC.
Position N 45°27' W 073°30'.
Warning: this ship's position is months out of date.

Length 173 m; draft 7.2 m.

Type: Ship. MMSI: 316297000.

Date/timePositionNaut miles runAvg speedWind from/ knotsBaromVisibWave heightAir tempDewpointWater temp
2015-Nov-07 17:31N 45°27' W 073°30'4 3.5
2015-Nov-07 16:31N 45°24' W 073°34'1 0.1
2015-Nov-07 02:06N 45°24' W 073°36'0 0.0
2015-Nov-06 21:24N 45°24' W 073°36'0 0.0
2015-Nov-06 20:24N 45°24' W 073°36'0 0.0
2015-Nov-06 19:24N 45°24' W 073°36'0 0.0
2015-Nov-06 18:18N 45°24' W 073°36'0 0.0
2015-Nov-06 14:33N 45°24' W 073°36'0 0.0
2015-Nov-06 13:33N 45°24' W 073°36'0 0.0
2015-Nov-06 12:27N 45°24' W 073°36'0 0.0
2015-Nov-06 11:33N 45°24' W 073°36'0 0.0
2015-Nov-06 10:33N 45°24' W 073°36'0 0.0
2015-Nov-06 09:33N 45°24' W 073°36'0 0.0
2015-Nov-06 08:33N 45°24' W 073°36'0 0.0
2015-Nov-06 07:33N 45°24' W 073°36'0 0.0
2015-Nov-06 06:33N 45°24' W 073°36'0 0.0
2015-Nov-06 05:21N 45°24' W 073°36'0 0.0
2015-Nov-06 04:33N 45°24' W 073°36'0 0.0
2015-Nov-06 03:33N 45°24' W 073°36'0 0.0
2015-Nov-06 02:33N 45°24' W 073°36'0 0.0
2015-Nov-06 01:27N 45°24' W 073°36'0 0.0
2015-Nov-06 00:33N 45°24' W 073°36'0 0.0
2015-Nov-05 23:33N 45°24' W 073°36'0 0.0
2015-Nov-05 22:33N 45°24' W 073°36'0 0.0
2015-Nov-05 20:27N 45°24' W 073°36'0 0.0
2015-Nov-05 19:33N 45°24' W 073°36'0 0.0
2015-Nov-05 18:33N 45°24' W 073°36'0 0.0
2015-Nov-05 17:33N 45°24' W 073°36'0 0.0
2015-Nov-05 16:33N 45°24' W 073°36'0 0.0
2015-Nov-05 15:33N 45°24' W 073°36'0 0.0
2015-Nov-05 14:09N 45°24' W 073°36'0 0.0
2015-Nov-05 13:33N 45°24' W 073°36'0 0.5
2015-Nov-05 12:33N 45°24' W 073°36'5 4.7
2015-Nov-05 11:33N 45°25' W 073°43'4 3.6
2015-Nov-05 10:33N 45°23' W 073°48'7 7.3
2015-Nov-05 09:33N 45°24' W 073°38'3 3.0
2015-Nov-05 08:33N 45°24' W 073°33'5 4.9
2015-Nov-05 07:32N 45°29' W 073°31'56 8.0
2015-Nov-05 00:33N 46°15' W 072°45'9 9.5
2015-Nov-04 23:33N 46°19' W 072°33'1111.1
2015-Nov-04 22:33N 46°26' W 072°20'1111.4
2015-Nov-04 21:33N 46°34' W 072°08'1311.7
2015-Nov-04 20:27N 46°41' W 071°52'  

Dump ship's entire track history